sensor_id;sensor_type;location;lat;lon;timestamp;pressure;altitude;pressure_sealevel;temperature;humidity
5500;BME280;2772;42.700;23.304;2023-01-30T00:01:37;95423.25;;;2.31;100.00
5500;BME280;2772;42.700;23.304;2023-01-30T00:04:04;95413.22;;;2.28;100.00
5500;BME280;2772;42.700;23.304;2023-01-30T00:06:32;95410.94;;;2.36;100.00
5500;BME280;2772;42.700;23.304;2023-01-30T00:08:59;95408.25;;;2.31;100.00
5500;BME280;2772;42.700;23.304;2023-01-30T00:11:26;95410.19;;;2.41;100.00
5500;BME280;2772;42.700;23.304;2023-01-30T00:13:54;95405.13;;;2.34;100.00
5500;BME280;2772;42.700;23.304;2023-01-30T00:16:21;95408.72;;;2.23;100.00
5500;BME280;2772;42.700;23.304;2023-01-30T00:18:48;95416.28;;;2.20;100.00
5500;BME280;2772;42.700;23.304;2023-01-30T00:21:15;95417.53;;;2.12;100.00
5500;BME280;2772;42.700;23.304;2023-01-30T00:23:43;95415.50;;;1.98;100.00
5500;BME280;2772;42.700;23.304;2023-01-30T00:26:10;95416.56;;;1.97;100.00
5500;BME280;2772;42.700;23.304;2023-01-30T00:28:37;95422.22;;;1.89;100.00
5500;BME280;2772;42.700;23.304;2023-01-30T00:31:05;95411.66;;;1.84;100.00
5500;BME280;2772;42.700;23.304;2023-01-30T00:33:32;95403.22;;;2.25;100.00
5500;BME280;2772;42.700;23.304;2023-01-30T00:36:00;95418.22;;;2.08;100.00
5500;BME280;2772;42.700;23.304;2023-01-30T00:38:27;95400.41;;;2.10;100.00
5500;BME280;2772;42.700;23.304;2023-01-30T00:40:56;95410.25;;;1.98;100.00
5500;BME280;2772;42.700;23.304;2023-01-30T00:43:22;95405.19;;;1.91;100.00
5500;BME280;2772;42.700;23.304;2023-01-30T00:46:11;95399.09;;;1.86;100.00
5500;BME280;2772;42.700;23.304;2023-01-30T00:48:56;95401.09;;;1.79;100.00
5500;BME280;2772;42.700;23.304;2023-01-30T00:51:23;95392.31;;;1.68;100.00
5500;BME280;2772;42.700;23.304;2023-01-30T00:53:50;95389.50;;;1.75;100.00
5500;BME280;2772;42.700;23.304;2023-01-30T00:56:18;95388.78;;;1.79;100.00
5500;BME280;2772;42.700;23.304;2023-01-30T00:58:45;95384.53;;;1.78;100.00
5500;BME280;2772;42.700;23.304;2023-01-30T01:01:11;95388.25;;;2.04;100.00
5500;BME280;2772;42.700;23.304;2023-01-30T01:03:38;95400.19;;;1.90;100.00
5500;BME280;2772;42.700;23.304;2023-01-30T01:06:05;95396.97;;;1.83;100.00
5500;BME280;2772;42.700;23.304;2023-01-30T01:08:32;95391.72;;;1.83;100.00
5500;BME280;2772;42.700;23.304;2023-01-30T01:10:59;95386.97;;;1.85;100.00
5500;BME280;2772;42.700;23.304;2023-01-30T01:13:27;95388.88;;;1.89;100.00
5500;BME280;2772;42.700;23.304;2023-01-30T01:15:54;95382.13;;;1.72;100.00
5500;BME280;2772;42.700;23.304;2023-01-30T01:18:21;95388.88;;;1.89;100.00
5500;BME280;2772;42.700;23.304;2023-01-30T01:20:47;95384.91;;;1.87;100.00
5500;BME280;2772;42.700;23.304;2023-01-30T01:23:14;95384.78;;;1.77;100.00
5500;BME280;2772;42.700;23.304;2023-01-30T01:25:41;95377.03;;;1.65;100.00
5500;BME280;2772;42.700;23.304;2023-01-30T01:28:08;95358.84;;;1.58;100.00
5500;BME280;2772;42.700;23.304;2023-01-30T01:30:36;95372.63;;;1.71;100.00
5500;BME280;2772;42.700;23.304;2023-01-30T01:33:03;95356.41;;;1.52;100.00
5500;BME280;2772;42.700;23.304;2023-01-30T01:35:30;95362.47;;;1.52;100.00
5500;BME280;2772;42.700;23.304;2023-01-30T01:37:56;95366.25;;;1.61;100.00
5500;BME280;2772;42.700;23.304;2023-01-30T01:40:23;95372.56;;;1.65;100.00
5500;BME280;2772;42.700;23.304;2023-01-30T01:43:15;95362.06;;;1.65;100.00
5500;BME280;2772;42.700;23.304;2023-01-30T01:45:44;95371.38;;;1.73;100.00
5500;BME280;2772;42.700;23.304;2023-01-30T01:48:18;95368.25;;;1.54;100.00
5500;BME280;2772;42.700;23.304;2023-01-30T01:50:49;95369.66;;;1.62;100.00
5500;BME280;2772;42.700;23.304;2023-01-30T01:53:20;95367.03;;;1.62;100.00
5500;BME280;2772;42.700;23.304;2023-01-30T01:55:51;95365.91;;;1.58;100.00
5500;BME280;2772;42.700;23.304;2023-01-30T01:58:26;95369.53;;;1.52;100.00
5500;BME280;2772;42.700;23.304;2023-01-30T02:00:58;95356.16;;;1.53;100.00
5500;BME280;2772;42.700;23.304;2023-01-30T02:03:28;95370.13;;;1.37;100.00
5500;BME280;2772;42.700;23.304;2023-01-30T02:05:58;95368.78;;;1.35;100.00
5500;BME280;2772;42.700;23.304;2023-01-30T02:08:28;95370.78;;;1.28;100.00
5500;BME280;2772;42.700;23.304;2023-01-30T02:10:59;95371.09;;;1.31;100.00
5500;BME280;2772;42.700;23.304;2023-01-30T02:13:28;95377.09;;;1.48;100.00
5500;BME280;2772;42.700;23.304;2023-01-30T02:15:59;95368.69;;;1.30;100.00
5500;BME280;2772;42.700;23.304;2023-01-30T02:18:27;95355.66;;;1.35;100.00
5500;BME280;2772;42.700;23.304;2023-01-30T02:21:05;95361.78;;;1.40;100.00
5500;BME280;2772;42.700;23.304;2023-01-30T02:27:06;95376.03;;;1.28;100.00
5500;BME280;2772;42.700;23.304;2023-01-30T02:30:08;95367.69;;;1.14;100.00
5500;BME280;2772;42.700;23.304;2023-01-30T02:32:43;95367.94;;;1.13;100.00
5500;BME280;2772;42.700;23.304;2023-01-30T02:35:18;95369.84;;;1.17;100.00
5500;BME280;2772;42.700;23.304;2023-01-30T02:37:57;95364.59;;;1.17;100.00
5500;BME280;2772;42.700;23.304;2023-01-30T02:40:38;95354.19;;;1.22;100.00
5500;BME280;2772;42.700;23.304;2023-01-30T02:43:12;95352.38;;;1.23;100.00
5500;BME280;2772;42.700;23.304;2023-01-30T02:45:47;95349.84;;;1.33;100.00
5500;BME280;2772;42.700;23.304;2023-01-30T02:48:23;95347.22;;;1.33;100.00
5500;BME280;2772;42.700;23.304;2023-01-30T02:50:56;95348.19;;;1.43;100.00
5500;BME280;2772;42.700;23.304;2023-01-30T02:53:26;95353.84;;;1.35;100.00
5500;BME280;2772;42.700;23.304;2023-01-30T02:55:55;95361.56;;;1.25;100.00
5500;BME280;2772;42.700;23.304;2023-01-30T02:58:23;95351.97;;;1.14;100.00
5500;BME280;2772;42.700;23.304;2023-01-30T03:01:14;95356.94;;;1.32;100.00
5500;BME280;2772;42.700;23.304;2023-01-30T03:03:57;95357.19;;;1.31;100.00
5500;BME280;2772;42.700;23.304;2023-01-30T03:06:42;95358.22;;;1.30;100.00
5500;BME280;2772;42.700;23.304;2023-01-30T03:09:17;95356.94;;;1.32;100.00
5500;BME280;2772;42.700;23.304;2023-01-30T03:11:56;95350.72;;;1.38;100.00
5500;BME280;2772;42.700;23.304;2023-01-30T03:14:25;95348.84;;;1.34;100.00
5500;BME280;2772;42.700;23.304;2023-01-30T03:16:56;95346.75;;;1.36;100.00
5500;BME280;2772;42.700;23.304;2023-01-30T03:19:27;95343.47;;;1.45;100.00
5500;BME280;2772;42.700;23.304;2023-01-30T03:21:55;95343.84;;;1.54;100.00
5500;BME280;2772;42.700;23.304;2023-01-30T03:24:21;95333.78;;;1.46;100.00
5500;BME280;2772;42.700;23.304;2023-01-30T03:26:53;95318.34;;;1.49;100.00
5500;BME280;2772;42.700;23.304;2023-01-30T03:29:22;95326.75;;;1.51;100.00
5500;BME280;2772;42.700;23.304;2023-01-30T03:31:49;95327.72;;;1.45;100.00
5500;BME280;2772;42.700;23.304;2023-01-30T03:34:16;95330.41;;;1.50;100.00
5500;BME280;2772;42.700;23.304;2023-01-30T03:36:45;95312.84;;;1.51;100.00
5500;BME280;2772;42.700;23.304;2023-01-30T03:39:12;95321.81;;;1.33;100.00
5500;BME280;2772;42.700;23.304;2023-01-30T03:41:39;95319.25;;;1.38;100.00
5500;BME280;2772;42.700;23.304;2023-01-30T03:44:06;95311.00;;;1.30;100.00
5500;BME280;2772;42.700;23.304;2023-01-30T03:46:32;95316.06;;;1.15;100.00
5500;BME280;2772;42.700;23.304;2023-01-30T03:48:59;95311.56;;;1.10;100.00
5500;BME280;2772;42.700;23.304;2023-01-30T03:51:26;95316.09;;;0.98;100.00
5500;BME280;2772;42.700;23.304;2023-01-30T03:53:54;95310.75;;;1.10;100.00
5500;BME280;2772;42.700;23.304;2023-01-30T03:56:21;95309.00;;;1.15;100.00
5500;BME280;2772;42.700;23.304;2023-01-30T03:58:47;95302.72;;;1.16;100.00
5500;BME280;2772;42.700;23.304;2023-01-30T04:01:14;95306.91;;;1.17;100.00
5500;BME280;2772;42.700;23.304;2023-01-30T04:03:41;95304.00;;;1.14;100.00
5500;BME280;2772;42.700;23.304;2023-01-30T04:06:08;95304.34;;;1.22;100.00
5500;BME280;2772;42.700;23.304;2023-01-30T04:08:34;95309.13;;;1.25;100.00
5500;BME280;2772;42.700;23.304;2023-01-30T04:11:03;95306.41;;;1.20;100.00
5500;BME280;2772;42.700;23.304;2023-01-30T04:13:30;95303.38;;;1.28;100.00
5500;BME280;2772;42.700;23.304;2023-01-30T04:16:14;95306.06;;;1.33;100.00
5500;BME280;2772;42.700;23.304;2023-01-30T04:18:41;95309.50;;;1.34;100.00
5500;BME280;2772;42.700;23.304;2023-01-30T04:21:08;95304.34;;;1.22;100.00
5500;BME280;2772;42.700;23.304;2023-01-30T04:23:35;95299.03;;;1.17;100.00
5500;BME280;2772;42.700;23.304;2023-01-30T04:26:03;95305.56;;;1.15;100.00
5500;BME280;2772;42.700;23.304;2023-01-30T04:28:31;95304.28;;;1.17;100.00
5500;BME280;2772;42.700;23.304;2023-01-30T04:30:57;95301.31;;;1.09;100.00
5500;BME280;2772;42.700;23.304;2023-01-30T04:33:24;95306.78;;;1.07;100.00
5500;BME280;2772;42.700;23.304;2023-01-30T04:35:52;95306.38;;;1.15;100.00
5500;BME280;2772;42.700;23.304;2023-01-30T04:38:19;95304.69;;;1.09;100.00
5500;BME280;2772;42.700;23.304;2023-01-30T04:40:47;95300.75;;;1.07;100.00
5500;BME280;2772;42.700;23.304;2023-01-30T04:43:16;95293.53;;;0.97;100.00
5500;BME280;2772;42.700;23.304;2023-01-30T04:45:43;95298.28;;;1.00;100.00
5500;BME280;2772;42.700;23.304;2023-01-30T04:48:10;95298.03;;;1.02;100.00
5500;BME280;2772;42.700;23.304;2023-01-30T04:50:37;95299.53;;;1.14;100.00
5500;BME280;2772;42.700;23.304;2023-01-30T04:53:04;95288.97;;;1.09;100.00
5500;BME280;2772;42.700;23.304;2023-01-30T04:55:31;95286.88;;;0.90;100.00
5500;BME280;2772;42.700;23.304;2023-01-30T04:57:58;95284.16;;;1.01;100.00
5500;BME280;2772;42.700;23.304;2023-01-30T05:00:26;95282.72;;;0.94;100.00
5500;BME280;2772;42.700;23.304;2023-01-30T05:02:53;95283.69;;;1.04;100.00
5500;BME280;2772;42.700;23.304;2023-01-30T05:05:20;95279.78;;;1.07;100.00
5500;BME280;2772;42.700;23.304;2023-01-30T05:07:47;95273.19;;;1.04;100.00
5500;BME280;2772;42.700;23.304;2023-01-30T05:10:15;95273.56;;;1.13;100.00
5500;BME280;2772;42.700;23.304;2023-01-30T05:12:42;95278.13;;;1.01;100.00
5500;BME280;2772;42.700;23.304;2023-01-30T05:15:10;95277.00;;;0.97;100.00
5500;BME280;2772;42.700;23.304;2023-01-30T05:17:38;95279.44;;;1.03;100.00
5500;BME280;2772;42.700;23.304;2023-01-30T05:20:08;95279.22;;;1.05;100.00
5500;BME280;2772;42.700;23.304;2023-01-30T05:22:35;95284.78;;;1.08;100.00
5500;BME280;2772;42.700;23.304;2023-01-30T05:25:02;95284.28;;;1.11;100.00
5500;BME280;2772;42.700;23.304;2023-01-30T05:27:29;95292.78;;;1.18;100.00
5500;BME280;2772;42.700;23.304;2023-01-30T05:29:55;95283.19;;;1.07;100.00
5500;BME280;2772;42.700;23.304;2023-01-30T05:32:22;95286.97;;;1.16;100.00
5500;BME280;2772;42.700;23.304;2023-01-30T05:34:51;95295.16;;;1.20;100.00
5500;BME280;2772;42.700;23.304;2023-01-30T05:37:18;95280.19;;;1.20;100.00
5500;BME280;2772;42.700;23.304;2023-01-30T05:39:44;95293.75;;;1.12;100.00
5500;BME280;2772;42.700;23.304;2023-01-30T05:42:11;95284.22;;;1.06;100.00
5500;BME280;2772;42.700;23.304;2023-01-30T05:44:38;95282.16;;;1.08;100.00
5500;BME280;2772;42.700;23.304;2023-01-30T05:47:05;95287.22;;;1.15;100.00
5500;BME280;2772;42.700;23.304;2023-01-30T05:49:31;95288.94;;;1.26;100.00
5500;BME280;2772;42.700;23.304;2023-01-30T05:51:59;95286.06;;;1.27;100.00
5500;BME280;2772;42.700;23.304;2023-01-30T05:54:26;95294.03;;;1.37;100.00
5500;BME280;2772;42.700;23.304;2023-01-30T05:56:53;95294.28;;;1.36;100.00
5500;BME280;2772;42.700;23.304;2023-01-30T05:59:20;95296.31;;;1.29;100.00
5500;BME280;2772;42.700;23.304;2023-01-30T06:01:47;95301.25;;;1.25;100.00
5500;BME280;2772;42.700;23.304;2023-01-30T06:04:13;95307.22;;;1.21;100.00
5500;BME280;2772;42.700;23.304;2023-01-30T06:06:40;95294.34;;;1.19;100.00
5500;BME280;2772;42.700;23.304;2023-01-30T06:09:10;95306.31;;;1.32;100.00
5500;BME280;2772;42.700;23.304;2023-01-30T06:11:36;95298.56;;;1.20;100.00
5500;BME280;2772;42.700;23.304;2023-01-30T06:14:03;95291.00;;;1.24;100.00
5500;BME280;2772;42.700;23.304;2023-01-30T06:16:30;95296.56;;;1.27;100.00
5500;BME280;2772;42.700;23.304;2023-01-30T06:18:57;95296.13;;;1.35;100.00
5500;BME280;2772;42.700;23.304;2023-01-30T06:21:23;95294.53;;;1.34;100.00
5500;BME280;2772;42.700;23.304;2023-01-30T06:23:50;95294.03;;;1.37;100.00
5500;BME280;2772;42.700;23.304;2023-01-30T06:26:18;95282.16;;;1.30;100.00
5500;BME280;2772;42.700;23.304;2023-01-30T06:28:45;95292.88;;;1.28;100.00
5500;BME280;2772;42.700;23.304;2023-01-30T06:31:12;95288.28;;;1.35;100.00
5500;BME280;2772;42.700;23.304;2023-01-30T06:33:40;95289.19;;;1.46;100.00
5500;BME280;2772;42.700;23.304;2023-01-30T06:36:08;95288.03;;;1.37;100.00
5500;BME280;2772;42.700;23.304;2023-01-30T06:38:35;95290.50;;;1.48;100.00
5500;BME280;2772;42.700;23.304;2023-01-30T06:41:02;95294.59;;;1.39;100.00
5500;BME280;2772;42.700;23.304;2023-01-30T06:43:30;95288.75;;;1.32;100.00
5500;BME280;2772;42.700;23.304;2023-01-30T06:45:57;95287.13;;;1.26;100.00
5500;BME280;2772;42.700;23.304;2023-01-30T06:48:25;95291.06;;;1.07;100.00
5500;BME280;2772;42.700;23.304;2023-01-30T06:50:51;95291.19;;;1.17;100.00
5500;BME280;2772;42.700;23.304;2023-01-30T06:53:18;95296.41;;;1.17;100.00
5500;BME280;2772;42.700;23.304;2023-01-30T06:55:46;95292.28;;;1.21;100.00
5500;BME280;2772;42.700;23.304;2023-01-30T06:58:13;95297.88;;;1.08;100.00
5500;BME280;2772;42.700;23.304;2023-01-30T07:00:42;95296.31;;;1.07;100.00
5500;BME280;2772;42.700;23.304;2023-01-30T07:03:09;95298.03;;;1.18;100.00
5500;BME280;2772;42.700;23.304;2023-01-30T07:05:37;95300.22;;;1.26;100.00
5500;BME280;2772;42.700;23.304;2023-01-30T07:08:04;95304.97;;;1.29;100.00
5500;BME280;2772;42.700;23.304;2023-01-30T07:10:31;95303.13;;;1.30;100.00
5500;BME280;2772;42.700;23.304;2023-01-30T07:12:58;95303.88;;;1.25;100.00
5500;BME280;2772;42.700;23.304;2023-01-30T07:15:25;95305.59;;;1.36;100.00
5500;BME280;2772;42.700;23.304;2023-01-30T07:17:53;95313.53;;;1.41;100.00
5500;BME280;2772;42.700;23.304;2023-01-30T07:20:20;95306.72;;;1.45;100.00
5500;BME280;2772;42.700;23.304;2023-01-30T07:22:50;95307.66;;;1.56;100.00
5500;BME280;2772;42.700;23.304;2023-01-30T07:25:17;95307.22;;;1.42;100.00
5500;BME280;2772;42.700;23.304;2023-01-30T07:27:49;95303.19;;;1.56;100.00
5500;BME280;2772;42.700;23.304;2023-01-30T07:30:16;95306.94;;;1.60;100.00
5500;BME280;2772;42.700;23.304;2023-01-30T07:32:43;95301.44;;;2.47;100.00
5500;BME280;2772;42.700;23.304;2023-01-30T07:35:11;95305.13;;;2.46;100.00
5500;BME280;2772;42.700;23.304;2023-01-30T07:37:39;95302.41;;;2.67;100.00
5500;BME280;2772;42.700;23.304;2023-01-30T07:40:07;95312.47;;;2.44;100.00
5500;BME280;2772;42.700;23.304;2023-01-30T07:42:34;95318.53;;;2.18;100.00
5500;BME280;2772;42.700;23.304;2023-01-30T07:45:01;95319.47;;;2.07;100.00
5500;BME280;2772;42.700;23.304;2023-01-30T07:47:28;95322.13;;;2.07;100.00
5500;BME280;2772;42.700;23.304;2023-01-30T07:49:55;95317.34;;;2.04;100.00
5500;BME280;2772;42.700;23.304;2023-01-30T07:52:23;95314.03;;;1.87;100.00
5500;BME280;2772;42.700;23.304;2023-01-30T07:54:50;95315.88;;;1.64;100.00
5500;BME280;2772;42.700;23.304;2023-01-30T07:57:17;95313.16;;;1.54;100.00
5500;BME280;2772;42.700;23.304;2023-01-30T07:59:43;95309.44;;;1.50;100.00
5500;BME280;2772;42.700;23.304;2023-01-30T08:02:10;95297.69;;;1.58;100.00
5500;BME280;2772;42.700;23.304;2023-01-30T08:04:37;95299.91;;;1.66;100.00
5500;BME280;2772;42.700;23.304;2023-01-30T08:07:04;95290.69;;;1.63;100.00
5500;BME280;2772;42.700;23.304;2023-01-30T08:09:32;95289.88;;;1.63;100.00
5500;BME280;2772;42.700;23.304;2023-01-30T08:11:59;95283.97;;;1.73;100.00
5500;BME280;2772;42.700;23.304;2023-01-30T08:14:25;95286.72;;;2.14;100.00
5500;BME280;2772;42.700;23.304;2023-01-30T08:16:55;95280.53;;;2.25;100.00
5500;BME280;2772;42.700;23.304;2023-01-30T08:19:22;95278.06;;;2.14;100.00
5500;BME280;2772;42.700;23.304;2023-01-30T08:21:48;95287.16;;;2.01;100.00
5500;BME280;2772;42.700;23.304;2023-01-30T08:24:15;95283.28;;;1.82;100.00
5500;BME280;2772;42.700;23.304;2023-01-30T08:26:43;95285.97;;;1.87;100.00
5500;BME280;2772;42.700;23.304;2023-01-30T08:29:10;95282.66;;;1.75;100.00
5500;BME280;2772;42.700;23.304;2023-01-30T08:31:37;95273.03;;;1.81;100.00
5500;BME280;2772;42.700;23.304;2023-01-30T08:34:03;95280.97;;;1.91;100.00
5500;BME280;2772;42.700;23.304;2023-01-30T08:36:30;95278.47;;;2.01;100.00
5500;BME280;2772;42.700;23.304;2023-01-30T08:38:57;95275.91;;;1.79;100.00
5500;BME280;2772;42.700;23.304;2023-01-30T08:41:23;95270.28;;;1.71;100.00
5500;BME280;2772;42.700;23.304;2023-01-30T08:43:54;95271.63;;;1.73;100.00
5500;BME280;2772;42.700;23.304;2023-01-30T08:46:20;95271.88;;;1.72;100.00
5500;BME280;2772;42.700;23.304;2023-01-30T08:48:47;95272.41;;;1.74;100.00
5500;BME280;2772;42.700;23.304;2023-01-30T08:51:14;95270.72;;;1.84;100.00
5500;BME280;2772;42.700;23.304;2023-01-30T08:53:41;95261.72;;;1.80;100.00
5500;BME280;2772;42.700;23.304;2023-01-30T08:56:07;95267.13;;;1.95;100.00
5500;BME280;2772;42.700;23.304;2023-01-30T08:58:34;95263.28;;;2.08;100.00
5500;BME280;2772;42.700;23.304;2023-01-30T09:01:05;95255.09;;;1.99;100.00
5500;BME280;2772;42.700;23.304;2023-01-30T09:03:32;95260.88;;;1.75;100.00
5500;BME280;2772;42.700;23.304;2023-01-30T09:05:59;95254.25;;;1.67;100.00
5500;BME280;2772;42.700;23.304;2023-01-30T09:08:25;95253.50;;;1.72;100.00
5500;BME280;2772;42.700;23.304;2023-01-30T09:10:56;95243.47;;;1.63;100.00
5500;BME280;2772;42.700;23.304;2023-01-30T09:13:23;95254.34;;;1.77;100.00
5500;BME280;2772;42.700;23.304;2023-01-30T09:15:50;95258.06;;;1.81;100.00
5500;BME280;2772;42.700;23.304;2023-01-30T09:18:19;95243.84;;;1.77;100.00
5500;BME280;2772;42.700;23.304;2023-01-30T09:20:45;95250.66;;;1.78;100.00
5500;BME280;2772;42.700;23.304;2023-01-30T09:23:12;95242.34;;;1.86;100.00
5500;BME280;2772;42.700;23.304;2023-01-30T09:25:39;95243.66;;;1.84;100.00
5500;BME280;2772;42.700;23.304;2023-01-30T09:28:06;95246.97;;;1.74;100.00
5500;BME280;2772;42.700;23.304;2023-01-30T09:30:33;95251.47;;;1.79;100.00
5500;BME280;2772;42.700;23.304;2023-01-30T09:32:59;95256.22;;;1.82;100.00
5500;BME280;2772;42.700;23.304;2023-01-30T09:35:28;95246.91;;;1.96;100.00
5500;BME280;2772;42.700;23.304;2023-01-30T09:37:54;95233.22;;;1.89;100.00
5500;BME280;2772;42.700;23.304;2023-01-30T09:40:25;95244.97;;;1.86;100.00
5500;BME280;2772;42.700;23.304;2023-01-30T09:43:16;95232.75;;;1.97;100.00
5500;BME280;2772;42.700;23.304;2023-01-30T09:46:06;95237.28;;;1.80;100.00
5500;BME280;2772;42.700;23.304;2023-01-30T09:48:37;95234.09;;;1.99;100.00
5500;BME280;2772;42.700;23.304;2023-01-30T09:51:18;95232.66;;;1.87;100.00
5500;BME280;2772;42.700;23.304;2023-01-30T09:54:16;95230.03;;;1.87;100.00
5500;BME280;2772;42.700;23.304;2023-01-30T09:56:44;95232.59;;;1.82;100.00
5500;BME280;2772;42.700;23.304;2023-01-30T09:59:20;95227.91;;;1.84;100.00
5500;BME280;2772;42.700;23.304;2023-01-30T10:01:54;95221.53;;;1.80;100.00
5500;BME280;2772;42.700;23.304;2023-01-30T10:04:28;95215.16;;;1.71;100.00
5500;BME280;2772;42.700;23.304;2023-01-30T10:07:06;95209.72;;;1.77;100.00
5500;BME280;2772;42.700;23.304;2023-01-30T10:09:44;95207.34;;;1.76;100.00
5500;BME280;2772;42.700;23.304;2023-01-30T10:12:25;95207.00;;;1.40;100.00
5500;BME280;2772;42.700;23.304;2023-01-30T10:15:15;95206.66;;;1.58;100.00
5500;BME280;2772;42.700;23.304;2023-01-30T10:20:51;95187.78;;;1.88;100.00
5500;BME280;2772;42.700;23.304;2023-01-30T10:23:41;95175.19;;;1.90;100.00
5500;BME280;2772;42.700;23.304;2023-01-30T10:26:13;95170.34;;;1.77;100.00
5500;BME280;2772;42.700;23.304;2023-01-30T10:28:49;95170.97;;;1.89;100.00
5500;BME280;2772;42.700;23.304;2023-01-30T10:31:21;95163.78;;;1.75;100.00
5500;BME280;2772;42.700;23.304;2023-01-30T10:33:56;95170.47;;;1.92;100.00
5500;BME280;2772;42.700;23.304;2023-01-30T10:36:28;95158.25;;;2.08;100.00
5500;BME280;2772;42.700;23.304;2023-01-30T10:39:00;95150.25;;;1.93;100.00
5500;BME280;2772;42.700;23.304;2023-01-30T10:41:30;95145.59;;;2.00;100.00
5500;BME280;2772;42.700;23.304;2023-01-30T10:44:01;95150.00;;;1.94;100.00
5500;BME280;2772;42.700;23.304;2023-01-30T10:46:51;95145.78;;;1.88;100.00
5500;BME280;2772;42.700;23.304;2023-01-30T10:49:26;95138.16;;;1.87;100.00
5500;BME280;2772;42.700;23.304;2023-01-30T10:52:00;95130.31;;;1.92;100.00
5500;BME280;2772;42.700;23.304;2023-01-30T10:54:35;95121.84;;;1.85;100.00
5500;BME280;2772;42.700;23.304;2023-01-30T10:57:13;95113.31;;;1.99;100.00
5500;BME280;2772;42.700;23.304;2023-01-30T10:59:49;95110.09;;;1.92;100.00
5500;BME280;2772;42.700;23.304;2023-01-30T11:02:35;95105.72;;;2.03;100.00
5500;BME280;2772;42.700;23.304;2023-01-30T11:05:12;95097.06;;;2.07;100.00
5500;BME280;2772;42.700;23.304;2023-01-30T11:07:42;95090.19;;;1.96;100.00
5500;BME280;2772;42.700;23.304;2023-01-30T11:10:15;95086.78;;;2.01;100.00
5500;BME280;2772;42.700;23.304;2023-01-30T11:12:42;95077.34;;;2.00;100.00
5500;BME280;2772;42.700;23.304;2023-01-30T11:15:09;95067.88;;;1.99;100.00
5500;BME280;2772;42.700;23.304;2023-01-30T11:17:38;95068.38;;;1.96;100.00
5500;BME280;2772;42.700;23.304;2023-01-30T11:20:11;95058.13;;;1.94;100.00
5500;BME280;2772;42.700;23.304;2023-01-30T11:22:45;95057.72;;;2.17;100.00
5500;BME280;2772;42.700;23.304;2023-01-30T11:25:16;95046.22;;;2.28;100.00
5500;BME280;2772;42.700;23.304;2023-01-30T11:27:51;95051.47;;;2.28;100.00
5500;BME280;2772;42.700;23.304;2023-01-30T11:30:19;95049.09;;;2.27;100.00
5500;BME280;2772;42.700;23.304;2023-01-30T11:32:48;95032.06;;;2.34;100.00
5500;BME280;2772;42.700;23.304;2023-01-30T11:35:26;95039.63;;;2.21;100.00
5500;BME280;2772;42.700;23.304;2023-01-30T11:38:09;95037.72;;;2.06;100.00
5500;BME280;2772;42.700;23.304;2023-01-30T11:40:38;95035.84;;;1.97;100.00
5500;BME280;2772;42.700;23.304;2023-01-30T11:43:11;95032.47;;;2.11;100.00
5500;BME280;2772;42.700;23.304;2023-01-30T11:45:39;95019.13;;;2.18;100.00
5500;BME280;2772;42.700;23.304;2023-01-30T11:48:14;95011.81;;;2.25;100.00
5500;BME280;2772;42.700;23.304;2023-01-30T11:50:45;94997.56;;;2.11;100.00
5500;BME280;2772;42.700;23.304;2023-01-30T11:53:22;94988.47;;;2.38;100.00
5500;BME280;2772;42.700;23.304;2023-01-30T11:55:54;94991.69;;;2.60;100.00
5500;BME280;2772;42.700;23.304;2023-01-30T11:58:21;94986.69;;;2.54;100.00
5500;BME280;2772;42.700;23.304;2023-01-30T12:00:48;94990.31;;;2.38;100.00
5500;BME280;2772;42.700;23.304;2023-01-30T12:03:17;94985.06;;;2.43;100.00
5500;BME280;2772;42.700;23.304;2023-01-30T12:05:46;94975.59;;;2.37;100.00
5500;BME280;2772;42.700;23.304;2023-01-30T12:08:23;94969.03;;;2.39;100.00
5500;BME280;2772;42.700;23.304;2023-01-30T12:10:54;94957.50;;;2.50;100.00
5500;BME280;2772;42.700;23.304;2023-01-30T12:13:28;94957.69;;;2.24;100.00
5500;BME280;2772;42.700;23.304;2023-01-30T12:16:14;94968.22;;;2.29;100.00
5500;BME280;2772;42.700;23.304;2023-01-30T12:18:47;94968.72;;;2.26;100.00
5500;BME280;2772;42.700;23.304;2023-01-30T12:21:27;94943.50;;;2.30;100.00
5500;BME280;2772;42.700;23.304;2023-01-30T12:24:04;94938.81;;;2.37;100.00
5500;BME280;2772;42.700;23.304;2023-01-30T12:26:39;94952.47;;;2.29;100.00
5500;BME280;2772;42.700;23.304;2023-01-30T12:29:20;94937.75;;;2.33;100.00
5500;BME280;2772;42.700;23.304;2023-01-30T12:31:53;94927.78;;;2.35;100.00
5500;BME280;2772;42.700;23.304;2023-01-30T12:34:23;94930.69;;;2.43;100.00
5500;BME280;2772;42.700;23.304;2023-01-30T12:36:59;94927.28;;;2.43;100.00
5500;BME280;2772;42.700;23.304;2023-01-30T12:39:40;94923.06;;;2.52;100.00
5500;BME280;2772;42.700;23.304;2023-01-30T12:42:26;94924.69;;;2.63;100.00
5500;BME280;2772;42.700;23.304;2023-01-30T12:45:05;94918.63;;;2.62;100.00
5500;BME280;2772;42.700;23.304;2023-01-30T12:50:35;94916.25;;;2.46;100.00
5500;BME280;2772;42.700;23.304;2023-01-30T12:53:22;94907.34;;;2.62;100.00
5500;BME280;2772;42.700;23.304;2023-01-30T12:55:59;94901.53;;;2.60;100.00
5500;BME280;2772;42.700;23.304;2023-01-30T12:58:31;94902.88;;;2.57;100.00
5500;BME280;2772;42.700;23.304;2023-01-30T13:01:09;94903.13;;;2.61;100.00
5500;BME280;2772;42.700;23.304;2023-01-30T13:03:41;94898.41;;;2.73;100.00
5500;BME280;2772;42.700;23.304;2023-01-30T13:06:32;94901.84;;;2.93;100.00
5500;BME280;2772;42.700;23.304;2023-01-30T13:09:13;94897.38;;;2.84;100.00
5500;BME280;2772;42.700;23.304;2023-01-30T13:11:50;94893.66;;;2.75;100.00
5500;BME280;2772;42.700;23.304;2023-01-30T13:14:26;94892.09;;;2.69;100.00
5500;BME280;2772;42.700;23.304;2023-01-30T13:17:05;94900.50;;;2.86;100.00
5500;BME280;2772;42.700;23.304;2023-01-30T13:19:40;94881.84;;;2.57;100.00
5500;BME280;2772;42.700;23.304;2023-01-30T13:22:13;94893.66;;;2.75;100.00
5500;BME280;2772;42.700;23.304;2023-01-30T13:24:52;94891.03;;;2.75;100.00
5500;BME280;2772;42.700;23.304;2023-01-30T13:27:22;94893.16;;;2.88;100.00
5500;BME280;2772;42.700;23.304;2023-01-30T13:29:52;94885.25;;;2.58;100.00
5500;BME280;2772;42.700;23.304;2023-01-30T13:32:29;94873.44;;;2.65;100.00
5500;BME280;2772;42.700;23.304;2023-01-30T13:34:59;94869.75;;;2.71;100.00
5500;BME280;2772;42.700;23.304;2023-01-30T13:37:30;94868.97;;;2.71;100.00